createdAt,value
2018-06-05T00:01:54.473Z,94361.17
2018-06-05T00:04:23.766Z,94363.81
2018-06-05T00:06:52.991Z,94367.29
2018-06-05T00:09:22.213Z,94365.66
2018-06-05T00:11:51.470Z,94364.79
2018-06-05T00:14:20.694Z,94358.70
2018-06-05T00:16:49.937Z,94365.66
2018-06-05T00:19:19.168Z,94362.36
2018-06-05T00:21:48.395Z,94368.00
2018-06-05T00:24:17.605Z,94365.48
2018-06-05T00:26:46.865Z,94364.39
2018-06-05T00:29:16.077Z,94370.08
2018-06-05T00:31:45.298Z,94373.42
2018-06-05T00:34:14.590Z,94383.11
2018-06-05T00:36:43.907Z,94375.13
2018-06-05T00:39:13.145Z,94376.44
2018-06-05T00:41:42.401Z,94378.48
2018-06-05T00:44:11.622Z,94376.86
2018-06-05T00:46:41.203Z,94375.64
2018-06-05T00:49:10.409Z,94376.09
2018-06-05T00:51:56.829Z,94377.10
2018-06-05T00:54:26.058Z,94376.61
2018-06-05T00:56:55.290Z,94377.55
2018-06-05T00:59:24.528Z,94376.23
2018-06-05T01:01:53.756Z,94370.02
2018-06-05T01:04:22.973Z,94382.59
2018-06-05T01:06:52.211Z,94390.60
2018-06-05T01:09:21.442Z,94385.33
2018-06-05T01:11:50.763Z,94387.08
2018-06-05T01:14:20.001Z,94377.59
2018-06-05T01:16:49.229Z,94378.77
2018-06-05T01:19:18.484Z,94380.24
2018-06-05T01:21:47.697Z,94389.88
2018-06-05T01:24:16.972Z,94393.73
2018-06-05T01:26:46.193Z,94392.45
2018-06-05T01:29:15.625Z,94391.31
2018-06-05T01:31:44.875Z,94388.37
2018-06-05T01:34:14.091Z,94383.09
2018-06-05T01:36:43.302Z,94385.32
2018-06-05T01:39:12.794Z,94384.41
2018-06-05T01:41:42.022Z,94387.27
2018-06-05T01:44:11.262Z,94389.41
2018-06-05T01:46:40.487Z,94389.68
2018-06-05T01:49:09.720Z,94389.08
2018-06-05T01:51:38.957Z,94391.80
2018-06-05T01:54:08.183Z,94381.05
2018-06-05T01:56:37.414Z,94392.73
2018-06-05T01:59:06.652Z,94394.52
2018-06-05T02:01:35.867Z,94392.19
2018-06-05T02:04:05.089Z,94390.69
2018-06-05T02:06:34.314Z,94385.72
2018-06-05T02:09:03.568Z,94391.16
2018-06-05T02:11:32.813Z,94398.02
2018-06-05T02:14:02.047Z,94399.69
2018-06-05T02:16:31.273Z,94400.22
2018-06-05T02:19:00.291Z,94400.29
2018-06-05T02:21:29.561Z,94397.32
2018-06-05T02:23:58.783Z,94400.97
2018-06-05T02:26:27.948Z,94397.81
2018-06-05T02:28:57.264Z,94402.83
2018-06-05T02:31:26.506Z,94401.50
2018-06-05T02:33:55.763Z,94404.81
2018-06-05T02:36:24.980Z,94415.02
2018-06-05T02:38:54.246Z,94407.44
2018-06-05T02:41:23.602Z,94401.28
2018-06-05T02:43:52.881Z,94406.52
2018-06-05T02:46:22.091Z,94412.49
2018-06-05T02:48:51.335Z,94413.92
2018-06-05T02:51:20.584Z,94415.44
2018-06-05T02:53:49.878Z,94419.08
2018-06-05T02:56:19.118Z,94416.53
2018-06-05T02:58:48.135Z,94380.77
2018-06-05T03:01:17.413Z,94421.13
2018-06-05T03:03:46.634Z,94424.97
2018-06-05T03:06:15.862Z,94429.13
2018-06-05T03:08:45.187Z,94430.89
2018-06-05T03:11:16.320Z,94427.20
2018-06-05T03:13:46.810Z,94427.69
2018-06-05T03:16:16.040Z,94431.64
2018-06-05T03:18:45.284Z,94435.59
2018-06-05T03:21:14.510Z,94435.59
2018-06-05T03:23:43.905Z,94439.42
2018-06-05T03:26:13.136Z,94451.94
2018-06-05T03:28:42.343Z,94450.39
2018-06-05T03:31:11.548Z,94453.20
2018-06-05T03:33:40.750Z,94451.38
2018-06-05T03:36:09.973Z,94457.65
2018-06-05T03:38:39.291Z,94457.97
2018-06-05T03:41:08.520Z,94455.02
2018-06-05T03:43:37.826Z,94455.34
2018-06-05T03:46:07.143Z,94459.56
2018-06-05T03:48:36.372Z,94461.70
2018-06-05T03:51:05.643Z,94458.52
2018-06-05T03:53:34.871Z,94461.36
2018-06-05T03:56:04.138Z,94461.11
2018-06-05T03:58:33.377Z,94462.63
2018-06-05T04:01:02.580Z,94460.07
2018-06-05T04:03:31.802Z,94464.56
2018-06-05T04:06:01.131Z,94462.80
2018-06-05T04:08:30.370Z,94470.70
2018-06-05T04:10:59.631Z,94465.88
2018-06-05T04:13:28.890Z,94459.13
2018-06-05T04:15:58.105Z,94464.12
2018-06-05T04:18:27.402Z,94469.33
2018-06-05T04:20:57.467Z,94467.46
2018-06-05T04:23:26.680Z,94471.19
2018-06-05T04:25:55.907Z,94468.29
2018-06-05T04:28:25.145Z,94466.23
2018-06-05T04:30:54.378Z,94470.81
2018-06-05T04:33:23.616Z,94471.63
2018-06-05T04:35:52.962Z,94468.61
2018-06-05T04:38:22.263Z,94471.97
2018-06-05T04:40:51.588Z,94480.59
2018-06-05T04:43:20.881Z,94477.83
2018-06-05T04:45:50.411Z,94473.69
2018-06-05T04:48:19.626Z,94474.23
2018-06-05T04:50:48.919Z,94478.97
2018-06-05T04:53:18.219Z,94480.19
2018-06-05T04:55:47.467Z,94473.38
2018-06-05T04:58:16.717Z,94478.66
2018-06-05T05:00:46.041Z,94475.22
2018-06-05T05:03:15.265Z,94473.53
2018-06-05T05:05:44.494Z,94476.45
2018-06-05T05:08:13.818Z,94481.47
2018-06-05T05:10:43.052Z,94476.81
2018-06-05T05:13:12.259Z,94474.89
2018-06-05T05:15:41.530Z,94484.95
2018-06-05T05:18:10.750Z,94478.52
2018-06-05T05:20:40.037Z,94486.25
2018-06-05T05:23:09.242Z,94479.74
2018-06-05T05:25:38.511Z,94483.89
2018-06-05T05:28:07.739Z,94488.00
2018-06-05T05:30:37.060Z,94492.39
2018-06-05T05:33:06.346Z,94492.15
2018-06-05T05:35:35.647Z,94489.82
2018-06-05T05:38:04.890Z,94492.95
2018-06-05T05:40:34.165Z,94489.57
2018-06-05T05:43:03.373Z,94498.34
2018-06-05T05:45:32.599Z,94496.91
2018-06-05T05:48:01.826Z,94493.95
2018-06-05T05:50:31.046Z,94483.63
2018-06-05T05:53:00.255Z,94484.17
2018-06-05T05:55:29.481Z,94482.89
2018-06-05T05:57:58.728Z,94485.97
2018-06-05T06:00:27.920Z,94494.70
2018-06-05T06:02:57.168Z,94494.84
2018-06-05T06:05:26.390Z,94498.28
2018-06-05T06:07:55.619Z,94497.95
2018-06-05T06:10:24.834Z,94491.16
2018-06-05T06:12:54.068Z,94493.01
2018-06-05T06:15:23.320Z,94486.77
2018-06-05T06:17:52.526Z,94487.56
2018-06-05T06:20:21.735Z,94490.09
2018-06-05T06:22:51.022Z,94490.07
2018-06-05T06:25:20.238Z,94488.34
2018-06-05T06:27:49.451Z,94485.31
2018-06-05T06:30:18.691Z,94490.05
2018-06-05T06:32:47.970Z,94491.95
2018-06-05T06:35:17.190Z,94492.02
2018-06-05T06:37:46.392Z,94493.47
2018-06-05T06:40:15.619Z,94496.04
2018-06-05T06:42:44.866Z,94496.80
2018-06-05T06:45:13.841Z,94493.52
2018-06-05T06:47:43.066Z,94496.70
2018-06-05T06:50:12.354Z,94493.59
2018-06-05T06:52:41.594Z,94493.50
2018-06-05T06:55:10.818Z,94490.75
2018-06-05T06:57:40.072Z,94487.45
2018-06-05T07:00:09.335Z,94483.08
2018-06-05T07:02:38.574Z,94486.15
2018-06-05T07:05:07.850Z,94485.59
2018-06-05T07:07:37.074Z,94485.73
2018-06-05T07:10:06.338Z,94486.94
2018-06-05T07:12:35.572Z,94483.75
2018-06-05T07:15:04.887Z,94489.83
2018-06-05T07:17:34.164Z,94486.12
2018-06-05T07:20:03.390Z,94491.53
2018-06-05T07:22:32.607Z,94492.16
2018-06-05T07:25:01.824Z,94488.07
2018-06-05T07:27:31.273Z,94492.41
2018-06-05T07:30:00.478Z,94492.44
2018-06-05T07:32:29.715Z,94491.68
2018-06-05T07:34:58.942Z,94492.50
2018-06-05T07:37:28.156Z,94485.49
2018-06-05T07:39:57.391Z,94492.94
2018-06-05T07:42:26.626Z,94486.09
2018-06-05T07:44:55.848Z,94487.09
2018-06-05T07:47:25.063Z,94477.20
2018-06-05T07:49:54.349Z,94481.67
2018-06-05T07:52:23.502Z,94473.00
2018-06-05T07:54:52.807Z,94471.19
2018-06-05T07:57:22.035Z,94473.38
2018-06-05T07:59:51.273Z,94473.46
2018-06-05T08:02:20.514Z,94473.25
2018-06-05T08:04:49.794Z,94479.45
2018-06-05T08:07:19.063Z,94483.27
2018-06-05T08:09:48.302Z,94483.66
2018-06-05T08:12:17.548Z,94468.52
2018-06-05T08:14:46.762Z,94476.17
2018-06-05T08:17:15.999Z,94479.01
2018-06-05T08:19:45.223Z,94474.53
2018-06-05T08:22:14.448Z,94480.23
2018-06-05T08:24:43.662Z,94473.86
2018-06-05T08:27:12.967Z,94476.72
2018-06-05T08:29:42.171Z,94478.88
2018-06-05T08:32:17.749Z,94481.20
2018-06-05T08:34:46.982Z,94482.63
2018-06-05T08:37:16.218Z,94481.21
2018-06-05T08:39:45.503Z,94469.42
2018-06-05T08:42:14.728Z,94472.13
2018-06-05T08:44:43.929Z,94479.99
2018-06-05T08:47:13.166Z,94478.80
2018-06-05T08:49:42.400Z,94472.25
2018-06-05T08:52:11.627Z,94466.34
2018-06-05T08:54:40.839Z,94466.50
2018-06-05T08:57:10.077Z,94465.58
2018-06-05T08:59:39.292Z,94458.79
2018-06-05T09:02:08.546Z,94457.48
2018-06-05T09:04:37.774Z,94465.38
2018-06-05T09:07:07.010Z,94464.61
2018-06-05T09:09:36.316Z,94460.44
2018-06-05T09:12:05.526Z,94467.80
2018-06-05T09:14:34.750Z,94464.84
2018-06-05T09:17:03.956Z,94467.58
2018-06-05T09:19:33.230Z,94464.38
2018-06-05T09:22:02.531Z,94464.67
2018-06-05T09:24:31.760Z,94466.30
2018-06-05T09:27:00.977Z,94466.08
2018-06-05T09:29:30.199Z,94460.27
2018-06-05T09:31:59.415Z,94465.92
2018-06-05T09:34:28.662Z,94461.50
2018-06-05T09:36:57.869Z,94463.80
2018-06-05T09:39:27.153Z,94456.89
2018-06-05T09:41:56.401Z,94463.77
2018-06-05T09:44:25.474Z,94462.65
2018-06-05T09:46:54.779Z,94458.44
2018-06-05T09:49:23.995Z,94461.36
2018-06-05T09:51:53.194Z,94459.16
2018-06-05T09:54:22.443Z,94454.09
2018-06-05T09:56:51.647Z,94447.91
2018-06-05T09:59:20.861Z,94450.41
2018-06-05T10:01:50.068Z,94453.20
2018-06-05T10:04:19.281Z,94445.36
2018-06-05T10:06:48.507Z,94439.44
2018-06-05T10:09:17.721Z,94440.94
2018-06-05T10:11:46.926Z,94438.92
2018-06-05T10:14:16.150Z,94432.61
2018-06-05T10:16:45.371Z,94429.64
2018-06-05T10:19:14.594Z,94432.62
2018-06-05T10:21:43.869Z,94428.15
2018-06-05T10:24:13.166Z,94435.04
2018-06-05T10:26:42.378Z,94438.63
2018-06-05T10:29:11.965Z,94430.69
2018-06-05T10:31:41.310Z,94431.16
2018-06-05T10:34:10.446Z,94431.53
2018-06-05T10:36:39.649Z,94430.44
2018-06-05T10:39:08.953Z,94423.55
2018-06-05T10:41:38.176Z,94425.00
2018-06-05T10:44:07.391Z,94426.09
2018-06-05T10:46:36.623Z,94416.91
2018-06-05T10:49:05.895Z,94425.38
2018-06-05T10:51:35.106Z,94427.88
2018-06-05T10:54:04.342Z,94422.72
2018-06-05T10:56:33.550Z,94423.48
2018-06-05T10:59:02.876Z,94419.64
2018-06-05T11:01:32.079Z,94417.28
2018-06-05T11:04:01.356Z,94413.44
2018-06-05T11:06:30.574Z,94411.94
2018-06-05T11:08:59.853Z,94412.45
2018-06-05T11:11:29.060Z,94412.75
2018-06-05T11:13:58.370Z,94409.00
2018-06-05T11:16:27.590Z,94406.52
2018-06-05T11:18:56.815Z,94400.24
2018-06-05T11:21:26.018Z,94396.69
2018-06-05T11:23:55.242Z,94395.12
2018-06-05T11:26:24.457Z,94392.16
2018-06-05T11:28:53.668Z,94387.66
2018-06-05T11:31:22.889Z,94395.86
2018-06-05T11:33:52.101Z,94398.58
2018-06-05T11:36:21.322Z,94382.39
2018-06-05T11:38:50.554Z,94396.31
2018-06-05T11:41:19.776Z,94390.94
2018-06-05T11:43:48.983Z,94387.58
2018-06-05T11:46:18.204Z,94393.14
2018-06-05T11:48:47.421Z,94382.58
2018-06-05T11:51:16.638Z,94377.39
2018-06-05T11:53:45.905Z,94379.17
2018-06-05T11:56:15.123Z,94379.20
2018-06-05T11:58:44.390Z,94377.91
2018-06-05T12:01:13.612Z,94379.82
2018-06-05T12:03:42.847Z,94371.04
2018-06-05T12:06:12.145Z,94369.41
2018-06-05T12:08:41.358Z,94366.72
2018-06-05T12:11:10.591Z,94369.67
2018-06-05T12:13:39.814Z,94363.25
2018-06-05T12:16:09.170Z,94364.28
2018-06-05T12:18:38.383Z,94353.80
2018-06-05T12:21:07.650Z,94346.60
2018-06-05T12:23:36.863Z,94337.75
2018-06-05T12:26:06.106Z,94333.59
2018-06-05T12:28:35.356Z,94340.09
2018-06-05T12:31:04.685Z,94338.44
2018-06-05T12:33:33.864Z,94340.03
2018-06-05T12:36:03.315Z,94333.91
2018-06-05T12:38:32.538Z,94329.47
2018-06-05T12:41:01.843Z,94327.86
2018-06-05T12:43:31.082Z,94322.77
2018-06-05T12:46:00.355Z,94326.44
2018-06-05T12:48:29.602Z,94335.04
2018-06-05T12:50:58.878Z,94326.42
2018-06-05T12:53:28.081Z,94336.86
2018-06-05T12:55:57.315Z,94330.03
2018-06-05T12:58:26.534Z,94323.58
2018-06-05T13:00:55.846Z,94317.39
2018-06-05T13:03:25.074Z,94321.28
2018-06-05T13:05:54.302Z,94322.80
2018-06-05T13:08:23.543Z,94316.11
2018-06-05T13:10:52.778Z,94306.01
2018-06-05T13:13:22.062Z,94311.18
2018-06-05T13:15:51.384Z,94310.59
2018-06-05T13:18:20.597Z,94312.88
2018-06-05T13:20:49.871Z,94312.57
2018-06-05T13:23:19.109Z,94309.13
2018-06-05T13:25:48.342Z,94306.84
2018-06-05T13:28:17.621Z,94304.92
2018-06-05T13:30:46.906Z,94308.55
2018-06-05T13:33:16.140Z,94315.08
2018-06-05T13:35:45.362Z,94307.33
2018-06-05T13:38:14.734Z,94309.35
2018-06-05T13:40:44.023Z,94299.65
2018-06-05T13:43:13.320Z,94296.25
2018-06-05T13:45:42.535Z,94295.02
2018-06-05T13:48:11.734Z,94300.92
2018-06-05T13:50:40.958Z,94283.28
2018-06-05T13:53:10.171Z,94292.23
2018-06-05T13:55:39.398Z,94297.83
2018-06-05T13:58:08.614Z,94292.18
2018-06-05T14:00:37.839Z,94292.05
2018-06-05T14:03:07.114Z,94289.33
2018-06-05T14:05:36.337Z,94278.20
2018-06-05T14:08:05.805Z,94286.45
2018-06-05T14:10:35.018Z,94287.83
2018-06-05T14:13:04.259Z,94288.24
2018-06-05T14:15:33.476Z,94285.36
2018-06-05T14:18:02.738Z,94292.63
2018-06-05T14:20:32.067Z,94292.64
2018-06-05T14:23:01.270Z,94288.14
2018-06-05T14:25:30.474Z,94286.94
2018-06-05T14:27:59.710Z,94286.09
2018-06-05T14:30:28.993Z,94279.31
2018-06-05T14:32:58.302Z,94281.44
2018-06-05T14:35:27.538Z,94277.42
2018-06-05T14:37:56.786Z,94283.97
2018-06-05T14:40:26.062Z,94279.69
2018-06-05T14:42:55.273Z,94282.32
2018-06-05T14:45:24.551Z,94282.12
2018-06-05T14:47:53.750Z,94281.78
2018-06-05T14:50:22.994Z,94275.76
2018-06-05T14:52:52.306Z,94273.38
2018-06-05T14:55:21.506Z,94274.94
2018-06-05T14:57:50.752Z,94269.05
2018-06-05T15:00:20.011Z,94271.98
2018-06-05T15:02:49.301Z,94274.63
2018-06-05T15:05:18.517Z,94280.28
2018-06-05T15:07:47.736Z,94282.06
2018-06-05T15:10:16.943Z,94286.22
2018-06-05T15:12:46.227Z,94283.00
2018-06-05T15:15:15.451Z,94284.64
2018-06-05T15:17:44.691Z,94273.36
2018-06-05T15:20:13.894Z,94282.58
2018-06-05T15:22:43.200Z,94280.22
2018-06-05T15:25:12.193Z,94275.75
2018-06-05T15:27:41.451Z,94280.46
2018-06-05T15:30:10.662Z,94280.92
2018-06-05T15:32:39.903Z,94278.85
2018-06-05T15:35:09.123Z,94275.84
2018-06-05T15:37:38.374Z,94275.76
2018-06-05T15:40:07.603Z,94270.84
2018-06-05T15:42:36.882Z,94273.92
2018-06-05T15:45:06.306Z,94283.87
2018-06-05T15:47:35.527Z,94286.00
2018-06-05T15:50:04.971Z,94285.77
2018-06-05T15:52:34.185Z,94279.20
2018-06-05T15:55:03.424Z,94276.52
2018-06-05T15:57:32.660Z,94274.27
2018-06-05T16:00:01.879Z,94276.61
2018-06-05T16:02:31.112Z,94278.69
2018-06-05T16:05:00.335Z,94280.25
2018-06-05T16:07:29.578Z,94280.69
2018-06-05T16:09:58.781Z,94273.84
2018-06-05T16:12:28.004Z,94271.05
2018-06-05T16:14:57.206Z,94271.99
2018-06-05T16:17:26.416Z,94269.65
2018-06-05T16:19:55.631Z,94272.97
2018-06-05T16:22:24.856Z,94270.74
2018-06-05T16:54:25.230Z,94269.36
2018-06-05T16:56:54.425Z,94279.70
2018-06-05T16:59:23.662Z,94278.22
2018-06-05T17:01:52.858Z,94281.02
2018-06-05T17:04:22.133Z,94284.84
2018-06-05T17:06:51.308Z,94281.75
2018-06-05T17:09:20.545Z,94289.12
2018-06-05T17:11:49.785Z,94281.80
2018-06-05T17:14:18.995Z,94286.31
2018-06-05T17:16:48.231Z,94293.33
2018-06-05T17:19:17.461Z,94288.27
2018-06-05T17:21:46.673Z,94292.63
2018-06-05T17:24:15.879Z,94292.90
2018-06-05T17:26:45.114Z,94288.38
2018-06-05T17:29:14.371Z,94292.70
2018-06-05T17:31:43.566Z,94286.57
2018-06-05T17:34:12.810Z,94289.23
2018-06-05T17:36:42.017Z,94293.55
2018-06-05T17:39:11.244Z,94296.61
2018-06-05T17:41:40.627Z,94294.45
2018-06-05T17:44:09.867Z,94297.98
2018-06-05T17:46:39.121Z,94301.80
2018-06-05T17:49:08.587Z,94301.81
2018-06-05T17:51:37.795Z,94301.59
2018-06-05T17:54:37.756Z,94300.53
2018-06-05T17:57:08.256Z,94299.05
2018-06-05T17:59:37.459Z,94295.84
2018-06-05T18:02:06.785Z,94307.13
2018-06-05T18:04:35.989Z,94297.05
2018-06-05T18:07:05.194Z,94302.98
2018-06-05T18:09:40.754Z,94305.69
2018-06-05T18:12:09.988Z,94303.83
2018-06-05T18:14:39.228Z,94299.52
2018-06-05T18:17:08.463Z,94297.95
2018-06-05T18:19:37.727Z,94312.74
2018-06-05T18:22:07.019Z,94310.64
2018-06-05T18:24:36.342Z,94314.16
2018-06-05T18:27:05.647Z,94310.11
2018-06-05T18:29:34.867Z,94312.52
2018-06-05T18:32:04.097Z,94320.03
2018-06-05T18:34:33.310Z,94320.54
2018-06-05T18:37:02.551Z,94325.59
2018-06-05T18:39:31.794Z,94318.05
2018-06-05T18:42:01.055Z,94326.03
2018-06-05T18:44:30.295Z,94332.66
2018-06-05T18:46:59.510Z,94341.41
2018-06-05T18:49:28.874Z,94342.86
2018-06-05T18:51:58.097Z,94344.89
2018-06-05T18:54:27.299Z,94345.00
2018-06-05T18:56:56.514Z,94351.86
2018-06-05T18:59:25.788Z,94358.38
2018-06-05T19:01:55.078Z,94352.30
2018-06-05T19:04:24.318Z,94358.84
2018-06-05T19:06:53.596Z,94357.09
2018-06-05T19:09:22.857Z,94361.63
2018-06-05T19:11:52.088Z,94357.38
2018-06-05T19:14:21.306Z,94357.41
2018-06-05T19:16:50.591Z,94364.94
2018-06-05T19:19:19.880Z,94375.77
2018-06-05T19:21:49.086Z,94371.65
2018-06-05T19:24:18.423Z,94369.02
2018-06-05T19:26:47.625Z,94379.41
2018-06-05T19:29:17.013Z,94378.91
2018-06-05T19:31:46.429Z,94389.73
2018-06-05T19:34:15.638Z,94395.06
2018-06-05T19:36:44.834Z,94400.22
2018-06-05T19:39:14.131Z,94401.88
2018-06-05T19:41:43.339Z,94410.55
2018-06-05T19:44:12.543Z,94412.02
2018-06-05T19:46:41.776Z,94417.20
2018-06-05T19:49:11.011Z,94419.57
2018-06-05T19:51:40.288Z,94422.56
2018-06-05T19:54:09.561Z,94421.23
2018-06-05T19:56:38.798Z,94422.47
2018-06-05T19:59:08.055Z,94427.17
2018-06-05T20:01:37.265Z,94431.33
2018-06-05T20:04:06.709Z,94435.43
2018-06-05T20:06:35.931Z,94432.38
2018-06-05T20:09:07.403Z,94424.79
2018-06-05T20:11:36.659Z,94432.13
2018-06-05T20:14:05.879Z,94431.63
2018-06-05T20:16:35.128Z,94430.02
2018-06-05T20:19:04.435Z,94431.13
2018-06-05T20:21:33.998Z,94433.64
2018-06-05T20:24:03.227Z,94432.36
2018-06-05T20:26:32.426Z,94433.73
2018-06-05T20:29:01.656Z,94431.98
2018-06-05T20:31:32.095Z,94434.83
2018-06-05T20:34:01.301Z,94435.73
2018-06-05T20:36:30.531Z,94438.20
2018-06-05T20:38:59.765Z,94435.23
2018-06-05T20:41:28.959Z,94427.93
2018-06-05T20:43:58.181Z,94437.25
2018-06-05T20:46:27.391Z,94435.70
2018-06-05T20:48:56.674Z,94439.45
2018-06-05T20:51:26.005Z,94436.26
2018-06-05T20:53:55.278Z,94432.08
2018-06-05T20:56:24.714Z,94436.87
2018-06-05T20:59:00.395Z,94435.49
2018-06-05T21:01:29.683Z,94429.50
2018-06-05T21:03:58.952Z,94431.86
2018-06-05T21:06:28.201Z,94442.89
2018-06-05T21:08:57.438Z,94442.70
2018-06-05T21:11:26.702Z,94446.17
2018-06-05T21:13:55.923Z,94443.21
2018-06-05T21:16:25.214Z,94455.81
2018-06-05T21:18:54.430Z,94449.19
2018-06-05T21:21:23.874Z,94451.66
2018-06-05T21:23:53.083Z,94455.44
2018-06-05T21:26:22.327Z,94452.99
2018-06-05T21:28:51.611Z,94455.80
2018-06-05T21:31:20.852Z,94453.02
2018-06-05T21:33:50.080Z,94451.61
2018-06-05T21:36:19.377Z,94445.34
2018-06-05T21:38:48.627Z,94447.48
2018-06-05T21:41:17.851Z,94448.23
2018-06-05T21:43:47.066Z,94451.38
2018-06-05T21:46:16.287Z,94450.33
2018-06-05T21:48:45.487Z,94454.80
2018-06-05T21:51:14.725Z,94461.70
2018-06-05T21:53:43.930Z,94457.66
2018-06-05T21:56:13.155Z,94456.97
2018-06-05T21:58:42.431Z,94458.67
2018-06-05T22:01:11.622Z,94459.64
2018-06-05T22:03:40.855Z,94456.48
2018-06-05T22:06:10.091Z,94454.86
2018-06-05T22:08:39.318Z,94456.11
2018-06-05T22:11:08.756Z,94452.92
2018-06-05T22:13:37.978Z,94445.31
2018-06-05T22:16:07.217Z,94453.84
2018-06-05T22:18:36.434Z,94458.92
2018-06-05T22:21:05.658Z,94455.48
2018-06-05T22:23:34.858Z,94455.48
2018-06-05T22:26:04.203Z,94450.73
2018-06-05T22:28:33.450Z,94451.78
2018-06-05T22:31:02.672Z,94457.27
2018-06-05T22:33:31.890Z,94454.36
2018-06-05T22:36:01.169Z,94452.95
2018-06-05T22:38:30.427Z,94454.12
2018-06-05T22:40:59.630Z,94455.38
2018-06-05T22:43:28.857Z,94454.24
2018-06-05T22:45:58.449Z,94451.36
2018-06-05T22:48:27.664Z,94446.45
2018-06-05T22:50:56.979Z,94453.27
2018-06-05T22:53:26.318Z,94455.61
2018-06-05T22:55:55.553Z,94449.72
2018-06-05T22:58:24.813Z,94452.58
2018-06-05T23:00:54.026Z,94458.53
2018-06-05T23:03:23.322Z,94452.04
2018-06-05T23:05:52.518Z,94456.56
2018-06-05T23:08:21.745Z,94452.20
2018-06-05T23:10:51.017Z,94455.09
2018-06-05T23:13:20.234Z,94454.25
2018-06-05T23:15:49.426Z,94457.00
2018-06-05T23:18:18.664Z,94454.77
2018-06-05T23:20:47.871Z,94454.38
2018-06-05T23:23:17.103Z,94459.87
2018-06-05T23:25:46.334Z,94457.82
2018-06-05T23:28:15.557Z,94460.23
2018-06-05T23:30:44.832Z,94462.63
2018-06-05T23:33:14.046Z,94464.27
2018-06-05T23:35:43.259Z,94465.81
2018-06-05T23:38:12.494Z,94464.28
2018-06-05T23:40:41.747Z,94456.91
2018-06-05T23:43:11.060Z,94454.35
2018-06-05T23:45:40.297Z,94456.59
2018-06-05T23:48:09.506Z,94461.48
2018-06-05T23:50:38.732Z,94474.58
2018-06-05T23:53:07.959Z,94472.86
2018-06-05T23:55:37.154Z,94470.11
2018-06-05T23:58:06.464Z,94465.84
